Terminal Aerodrome Forecast
Issued by NWS

Home | Current Version | Previous Version | Text Only | Print | Product List | Glossary On
Versions: 1 2 3 4 5 6 7 8 9 10 11 12 13 14 15 16 17 18 19 20
000
FTUS42 KTAE 081720
TAFVLD
TAF
KVLD 081720Z 0818/0918 35008KT P6SM SCT040
     FM090000 36008KT P6SM BKN200=

USA.gov is the U.S. government's official web portal to all federal, state and local government web resources and services.